createdAt,value
2023-03-22T00:04:44.402Z,80.62
2023-03-22T00:09:46.876Z,80.80
2023-03-22T00:14:55.175Z,80.55
2023-03-22T00:19:57.235Z,80.56
2023-03-22T00:24:59.230Z,80.47
2023-03-22T00:30:00.940Z,80.63
2023-03-22T00:35:03.964Z,80.94
2023-03-22T00:40:11.607Z,81.16
2023-03-22T00:45:14.558Z,81.40
2023-03-22T00:50:22.383Z,81.66
2023-03-22T00:55:25.632Z,81.90
2023-03-22T01:00:27.718Z,81.87
2023-03-22T01:05:34.981Z,81.98
2023-03-22T01:10:38.958Z,82.18
2023-03-22T01:15:41.403Z,82.32
2023-03-22T01:20:43.229Z,82.21
2023-03-22T01:25:45.341Z,82.24
2023-03-22T01:30:47.120Z,82.39
2023-03-22T01:35:48.883Z,82.19
2023-03-22T01:40:51.091Z,82.27
2023-03-22T01:45:54.446Z,82.15
2023-03-22T01:51:12.068Z,81.77
2023-03-22T01:56:40.809Z,81.69
2023-03-22T02:01:47.070Z,81.80
2023-03-22T02:06:54.221Z,81.89
2023-03-22T02:12:25.476Z,81.67
2023-03-22T02:17:45.344Z,81.62
2023-03-22T02:22:59.023Z,81.70
2023-03-22T02:28:14.522Z,81.95
2023-03-22T02:33:29.688Z,82.74
2023-03-22T02:39:06.695Z,83.20
2023-03-22T02:44:35.358Z,83.73
2023-03-22T02:49:48.055Z,84.14
2023-03-22T02:55:10.026Z,84.32
2023-03-22T03:00:14.656Z,84.69
2023-03-22T03:05:18.227Z,84.57
2023-03-22T03:10:22.044Z,84.71
2023-03-22T03:15:23.960Z,84.68
2023-03-22T03:20:52.964Z,84.86
2023-03-22T03:26:19.419Z,85.37
2023-03-22T03:31:33.435Z,85.57
2023-03-22T03:36:39.543Z,85.53
2023-03-22T03:41:43.950Z,85.82
2023-03-22T03:46:46.701Z,86.21
2023-03-22T03:51:52.128Z,85.94
2023-03-22T03:56:54.503Z,85.65
2023-03-22T04:01:56.273Z,85.79
2023-03-22T04:07:01.897Z,85.60
2023-03-22T04:12:05.000Z,85.50
2023-03-22T04:17:08.728Z,85.32
2023-03-22T04:22:14.873Z,85.27
2023-03-22T04:27:18.282Z,85.13
2023-03-22T04:32:34.512Z,84.96
2023-03-22T04:37:36.569Z,84.86
2023-03-22T04:42:46.794Z,84.71
2023-03-22T04:47:59.455Z,84.55
2023-03-22T04:53:01.899Z,84.34
2023-03-22T04:58:05.542Z,84.29
2023-03-22T05:03:07.406Z,84.05
2023-03-22T05:08:15.917Z,83.76
2023-03-22T05:17:03.819Z,83.53
2023-03-22T05:22:08.435Z,83.30
2023-03-22T05:27:17.956Z,82.84
2023-03-22T05:32:25.551Z,82.64
2023-03-22T05:37:30.039Z,82.46
2023-03-22T05:42:32.736Z,82.42
2023-03-22T05:47:36.172Z,82.37
2023-03-22T05:52:44.668Z,82.29
2023-03-22T05:58:02.772Z,81.82
2023-03-22T06:03:05.779Z,81.70
2023-03-22T06:08:12.672Z,81.43
2023-03-22T06:13:14.728Z,81.29
2023-03-22T06:18:16.897Z,81.20
2023-03-22T06:23:21.804Z,80.97
2023-03-22T06:28:23.757Z,80.97
2023-03-22T06:33:28.472Z,80.89
2023-03-22T06:38:35.120Z,80.85
2023-03-22T06:43:37.792Z,80.39
2023-03-22T06:48:50.970Z,80.32
2023-03-22T06:53:53.073Z,80.08
2023-03-22T06:58:57.907Z,79.73
2023-03-22T07:03:59.873Z,78.94
2023-03-22T07:09:02.582Z,77.45
2023-03-22T07:14:06.649Z,73.70
2023-03-22T07:19:28.723Z,70.78
2023-03-22T07:24:31.426Z,70.36
2023-03-22T07:29:33.684Z,69.98
2023-03-22T07:34:36.127Z,69.03
2023-03-22T07:39:47.200Z,68.17
2023-03-22T07:44:49.776Z,67.29
2023-03-22T07:49:54.457Z,66.62
2023-03-22T07:55:01.319Z,65.39
2023-03-22T08:00:04.783Z,64.55
2023-03-22T08:05:20.229Z,64.33
2023-03-22T08:10:26.847Z,63.80
2023-03-22T08:15:29.468Z,63.56
2023-03-22T08:20:31.845Z,63.80
2023-03-22T08:25:37.105Z,63.81
2023-03-22T08:30:43.804Z,62.80
2023-03-22T08:35:46.481Z,62.24
2023-03-22T08:40:48.395Z,62.13
2023-03-22T08:45:53.726Z,61.63
2023-03-22T08:50:56.055Z,61.35
2023-03-22T08:56:04.928Z,61.06
2023-03-22T09:01:25.704Z,60.43
2023-03-22T09:06:38.757Z,59.61
2023-03-22T09:11:42.660Z,58.03
2023-03-22T09:16:45.580Z,56.09
2023-03-22T09:21:47.660Z,55.48
2023-03-22T09:26:53.908Z,53.86
2023-03-22T09:31:55.903Z,52.71
2023-03-22T09:37:02.786Z,51.64
2023-03-22T09:42:31.461Z,50.35
2023-03-22T09:47:45.429Z,50.72
2023-03-22T09:52:48.188Z,50.96
2023-03-22T09:58:12.185Z,50.99
2023-03-22T10:03:31.142Z,50.97
2023-03-22T10:08:49.946Z,50.63
2023-03-22T10:14:01.883Z,50.38
2023-03-22T10:19:33.166Z,50.99
2023-03-22T10:24:38.570Z,50.17
2023-03-22T10:29:47.670Z,50.47
2023-03-22T10:34:49.482Z,50.71
2023-03-22T10:39:55.849Z,51.07
2023-03-22T10:45:03.720Z,50.88
2023-03-22T10:50:12.135Z,51.03
2023-03-22T10:55:15.927Z,50.56
2023-03-22T11:00:18.012Z,50.64
2023-03-22T11:05:27.529Z,50.94
2023-03-22T11:10:34.821Z,51.77
2023-03-22T11:15:41.383Z,51.63
2023-03-22T11:20:54.113Z,51.42
2023-03-22T11:26:00.205Z,52.20
2023-03-22T11:31:09.522Z,52.73
2023-03-22T11:36:17.891Z,52.28
2023-03-22T11:41:25.969Z,52.72
2023-03-22T11:46:29.612Z,52.83
2023-03-22T11:51:37.683Z,52.44
2023-03-22T11:56:48.293Z,52.44
2023-03-22T12:01:58.366Z,52.11
2023-03-22T12:07:03.714Z,51.88
2023-03-22T12:12:09.896Z,52.20
2023-03-22T12:17:21.847Z,50.93
2023-03-22T12:22:30.559Z,50.10
2023-03-22T12:27:42.533Z,49.80
2023-03-22T12:33:06.792Z,49.42
2023-03-22T12:38:43.119Z,49.91
2023-03-22T12:44:01.176Z,49.04
2023-03-22T12:49:12.469Z,48.34
2023-03-22T12:54:17.040Z,48.44
2023-03-22T12:59:23.397Z,48.56
2023-03-22T13:04:37.330Z,49.08
2023-03-22T13:09:50.945Z,48.88
2023-03-22T13:14:52.673Z,48.62
2023-03-22T13:20:23.488Z,48.80
2023-03-22T13:25:26.222Z,48.70
2023-03-22T13:30:47.031Z,48.39
2023-03-22T13:35:56.700Z,48.21
2023-03-22T13:41:03.401Z,48.01
2023-03-22T13:46:05.031Z,48.61
2023-03-22T13:51:22.769Z,48.88
2023-03-22T13:56:54.124Z,48.39
2023-03-22T14:02:18.568Z,47.50
2023-03-22T14:07:39.170Z,48.21
2023-03-22T14:13:03.950Z,48.00
2023-03-22T14:18:21.351Z,48.31
